Aviation Digital Data Service (ADDS)

Output produced by METARs form (0619 UTC 19 February 2019)
found at http://www.aviationweather.gov/metar/data/
 
Forecast for: KBDL (WINDSOR LOCKS , CT, US)
Text: KBDL 190521Z 1906/2012 31013KT P6SM FEW030
Forecast period: 0600 to 1500 UTC 19 February 2019
Forecast type: FROM: standard forecast or significant change
Winds: from the NW (310 degrees) at 15 MPH (13 knots; 6.7 m/s)
Visibility: 6 or more miles 10+ km)
Ceiling: at least 12,000 feet AGL
Clouds: few clouds at 3000 feet AGL
Weather: no significant weather forecast for this period
Text: FM191500 32008KT P6SM SKC
Forecast period: 1500 UTC 19 February 2019 to 0800 UTC 20 February 2019
Forecast type: FROM: standard forecast or significant change
Winds: from the NW (320 degrees) at 9 MPH (8 knots; 4.1 m/s)
Visibility: 6 or more miles 10+ km)
Clouds: clear skies
Weather: no significant weather forecast for this period
Text: FM200800 00000KT P6SM SCT250
Forecast period: 0800 to 1200 UTC 20 February 2019
Forecast type: FROM: standard forecast or significant change
Winds: calm
Visibility: 6 or more miles 10+ km)
Ceiling: at least 12,000 feet AGL
Clouds: scattered clouds at 25000 feet AGL
Weather: no significant weather forecast for this period